Time;durP1;ratioP1;P1;durP2;ratioP2;P2;SDS_P1;SDS_P2;PMS_P1;PMS_P2;Temp;Humidity;BMP_temperature;BMP_pressure;BME280_temperature;BME280_humidity;BME280_pressure;Samples;Min_cycle;Max_cycle;Signal;HPM_P1;HPM_P2
2020/12/08 00:08:54;;;;;;;14.43;11.27;;;;;;;17.24;41.25;99951.94;31723411;28;20045;-57
2020/12/08 00:23:55;;;;;;;16.05;11.40;;;;;;;17.29;41.52;99952.34;31755329;28;20043;-57
2020/12/08 00:38:56;;;;;;;16.05;11.32;;;;;;;17.25;41.95;99953.59;31658981;28;20043;-58
2020/12/08 00:53:57;;;;;;;14.95;10.73;;;;;;;17.16;42.36;99929.00;31622243;28;20044;-57
2020/12/08 01:08:58;;;;;;;15.07;11.23;;;;;;;17.10;42.48;99940.06;31618157;28;20508;-57
2020/12/08 01:23:59;;;;;;;14.07;10.75;;;;;;;17.06;42.78;99946.53;31609865;28;20282;-57
2020/12/08 01:39:00;;;;;;;13.32;9.85;;;;;;;17.01;42.96;99946.13;31616497;28;20052;-57
2020/12/08 01:54:01;;;;;;;16.20;10.70;;;;;;;17.00;43.21;99939.25;31614419;28;20022;-55
2020/12/08 02:09:02;;;;;;;14.75;10.73;;;;;;;16.99;43.31;99937.56;31612087;28;20044;-56
2020/12/08 02:24:03;;;;;;;15.18;10.73;;;;;;;16.95;43.31;99927.34;31609056;28;20051;-53
2020/12/08 02:39:04;;;;;;;15.43;10.57;;;;;;;16.92;43.52;99922.34;31610604;28;20044;-53
2020/12/08 02:54:05;;;;;;;13.40;10.43;;;;;;;16.86;43.51;99930.78;31609821;28;20017;-55
2020/12/08 03:09:06;;;;;;;13.00;10.13;;;;;;;16.84;43.67;99937.16;31608690;28;20367;-57
2020/12/08 03:24:07;;;;;;;14.67;10.83;;;;;;;16.83;44.05;99945.97;31607236;28;20289;-57
2020/12/08 03:39:08;;;;;;;16.35;10.85;;;;;;;16.82;44.02;99932.03;31628913;28;20306;-58
2020/12/08 03:54:09;;;;;;;16.75;11.20;;;;;;;16.82;44.07;99932.03;31630269;28;20018;-56
2020/12/08 04:09:10;;;;;;;14.88;10.68;;;;;;;16.80;43.94;99927.88;31627647;28;20054;-57
2020/12/08 04:24:11;;;;;;;15.38;11.07;;;;;;;16.78;44.43;99927.16;31626512;28;20030;-54
2020/12/08 04:39:12;;;;;;;16.50;11.80;;;;;;;16.73;44.44;99925.75;31622951;28;20048;-56
2020/12/08 04:54:13;;;;;;;13.05;10.98;;;;;;;16.72;44.48;99934.63;31622982;28;20270;-58
2020/12/08 05:09:14;;;;;;;14.25;10.98;;;;;;;16.70;44.42;99938.34;31620098;28;20044;-57
2020/12/08 05:24:25;;;;;;;16.05;11.75;;;;;;;16.69;44.63;99957.66;31619577;28;20035;-53
2020/12/08 05:39:26;;;;;;;15.50;11.63;;;;;;;16.68;44.64;99953.38;31616428;28;20370;-56
2020/12/08 05:54:27;;;;;;;18.02;12.18;;;;;;;16.66;44.69;99960.56;31630640;28;20071;-58
2020/12/08 06:09:30;;;;;;;18.42;12.23;;;;;;;16.66;44.64;99973.69;31596929;28;20097;-57
2020/12/08 06:24:31;;;;;;;17.92;12.23;;;;;;;16.63;44.66;99985.28;31612837;28;20040;-57
2020/12/08 06:39:32;;;;;;;15.93;12.48;;;;;;;16.63;44.79;100001.03;31517566;28;20047;-58
2020/12/08 06:54:33;;;;;;;14.45;11.60;;;;;;;16.60;44.62;100001.25;31485568;28;20406;-57
2020/12/08 07:09:34;;;;;;;14.60;12.10;;;;;;;16.61;44.69;100010.81;31501474;28;20039;-59
2020/12/08 07:24:42;;;;;;;17.90;11.93;;;;;;;16.59;44.80;100031.09;31556660;28;20358;-55
2020/12/08 07:39:43;;;;;;;17.08;12.43;;;;;;;16.62;44.85;100033.44;31642620;28;20048;-53
2020/12/08 07:54:44;;;;;;;16.35;11.77;;;;;;;16.71;44.55;100051.03;31678463;28;20024;-55
2020/12/08 08:09:45;;;;;;;19.27;11.88;;;;;;;16.92;44.09;100058.03;31633189;28;20054;-55
2020/12/08 08:24:46;;;;;;;18.35;12.10;;;;;;;17.13;43.51;100071.06;31629286;28;20034;-54
2020/12/08 08:39:47;;;;;;;17.52;11.85;;;;;;;17.29;43.31;100078.44;31529162;28;20051;-52
2020/12/08 08:54:48;;;;;;;16.48;12.50;;;;;;;17.70;42.48;100076.53;31499156;28;20511;-55
2020/12/08 09:09:49;;;;;;;16.60;12.20;;;;;;;18.47;40.81;100072.97;31498021;28;20038;-56
2020/12/08 09:24:50;;;;;;;19.25;13.32;;;;;;;18.96;39.86;100078.88;31541251;28;20410;-57
2020/12/08 09:39:52;;;;;;;17.80;13.10;;;;;;;19.60;38.75;100082.34;31622307;28;20045;-58
2020/12/08 09:54:53;;;;;;;18.90;13.48;;;;;;;20.13;37.73;100080.69;31692550;28;20182;-57
2020/12/08 10:09:54;;;;;;;19.70;14.10;;;;;;;20.54;37.20;100086.22;31553931;28;20447;-56
2020/12/08 10:24:55;;;;;;;34.37;25.57;;;;;;;18.19;32.28;100072.91;31665584;28;20293;-59
2020/12/08 10:39:56;;;;;;;33.83;23.63;;;;;;;17.52;32.51;100085.13;31643070;28;20298;-57
2020/12/08 10:54:57;;;;;;;32.22;21.75;;;;;;;17.09;36.57;100081.03;31660590;28;20031;-55
2020/12/08 11:09:58;;;;;;;25.77;18.88;;;;;;;18.28;35.35;100065.97;31600033;28;20120;-59
2020/12/08 11:24:59;;;;;;;27.10;17.30;;;;;;;18.74;35.53;100072.19;31642330;28;20047;-58
2020/12/08 11:40:00;;;;;;;25.90;18.00;;;;;;;18.90;35.61;100078.63;31552630;28;20040;-57
2020/12/08 11:55:06;;;;;;;23.63;18.00;;;;;;;18.95;35.71;100087.78;31595206;28;20373;-57
2020/12/08 12:10:06;;;;;;;25.33;18.10;;;;;;;18.87;35.49;100090.28;31558969;28;20328;-55
2020/12/08 12:25:07;;;;;;;28.00;18.67;;;;;;;18.86;36.42;100088.66;31552941;28;20110;-57
2020/12/08 12:40:08;;;;;;;31.47;21.10;;;;;;;18.91;36.26;100093.47;31612465;28;20306;-50
2020/12/08 12:55:09;;;;;;;36.50;22.13;;;;;;;18.43;35.61;100087.38;31629246;28;20280;-54
2020/12/08 13:10:10;;;;;;;30.42;22.52;;;;;;;17.86;35.09;100107.56;31640918;28;20821;-52
2020/12/08 13:25:12;;;;;;;28.27;18.70;;;;;;;17.43;38.00;100114.84;31668657;28;20035;-54
2020/12/08 13:40:13;;;;;;;25.48;17.95;;;;;;;17.45;39.08;100118.13;31648943;28;20047;-54
2020/12/08 13:55:14;;;;;;;25.75;17.13;;;;;;;17.40;40.57;100127.41;31657465;28;20482;-53
2020/12/08 14:10:15;;;;;;;23.70;16.42;;;;;;;17.32;41.26;100128.91;31662150;28;20028;-51
2020/12/08 14:25:18;;;;;;;26.52;16.70;;;;;;;17.17;41.57;100132.88;31645169;28;20028;-51
2020/12/08 14:40:19;;;;;;;23.52;16.77;;;;;;;17.09;42.43;100159.78;31644200;28;20098;-51
2020/12/08 14:55:20;;;;;;;24.23;18.35;;;;;;;17.00;43.07;100170.28;31627971;28;20028;-54
2020/12/08 15:10:21;;;;;;;25.48;17.30;;;;;;;16.90;43.57;100184.16;31641055;28;20036;-51
2020/12/08 15:25:22;;;;;;;25.65;17.40;;;;;;;16.84;43.87;100194.38;31641588;28;20036;-51
2020/12/08 15:40:23;;;;;;;24.50;17.67;;;;;;;17.00;43.39;100215.72;31679175;28;20048;-52
2020/12/08 15:55:24;;;;;;;26.90;17.88;;;;;;;17.49;44.90;100221.16;31636321;28;20483;-50
2020/12/08 16:10:25;;;;;;;24.35;17.45;;;;;;;17.83;44.02;100216.44;31630004;28;20042;-50
2020/12/08 16:25:26;;;;;;;25.50;18.95;;;;;;;18.04;43.20;100232.09;31628239;28;20027;-53
2020/12/08 16:40:27;;;;;;;23.23;17.60;;;;;;;18.11;41.97;100246.38;31625043;28;20519;-50
2020/12/08 16:55:28;;;;;;;24.27;18.25;;;;;;;18.06;42.05;100251.22;31656257;28;20080;-53
2020/12/08 17:10:29;;;;;;;24.13;18.38;;;;;;;17.94;42.44;100255.75;31617602;28;20489;-51
2020/12/08 17:25:30;;;;;;;23.83;18.38;;;;;;;17.83;42.66;100279.53;31626274;28;20047;-50
2020/12/08 17:40:31;;;;;;;26.57;19.40;;;;;;;17.89;42.99;100280.78;31658793;28;20050;-62
2020/12/08 17:55:32;;;;;;;25.52;19.90;;;;;;;18.09;43.45;100305.31;31605008;28;20648;-62
2020/12/08 18:10:33;;;;;;;42.90;30.52;;;;;;;17.90;41.59;100320.09;31608734;28;20031;-60
2020/12/08 18:25:34;;;;;;;38.08;28.35;;;;;;;18.11;41.69;100329.69;31655724;28;20069;-61
2020/12/08 18:40:35;;;;;;;35.22;26.25;;;;;;;18.17;42.74;100321.28;31635229;28;20562;-62
2020/12/08 18:55:36;;;;;;;47.78;33.03;;;;;;;16.56;33.95;100309.47;31628964;28;20024;-62
2020/12/08 19:10:37;;;;;;;36.88;27.23;;;;;;;17.42;41.59;100327.75;31633534;28;20032;-61
2020/12/08 19:25:38;;;;;;;36.88;26.90;;;;;;;18.09;40.34;100339.53;31646656;28;20474;-62
2020/12/08 19:40:39;;;;;;;35.08;26.55;;;;;;;18.39;40.14;100357.03;31632915;28;20055;-61
2020/12/08 19:55:40;;;;;;;34.90;26.80;;;;;;;18.41;40.39;100361.19;31632998;28;20035;-58
2020/12/08 20:10:41;;;;;;;35.60;27.40;;;;;;;18.39;41.54;100370.19;31637377;28;20039;-61
2020/12/08 20:25:42;;;;;;;33.63;25.93;;;;;;;18.31;42.18;100360.34;31673121;28;20298;-59
2020/12/08 20:40:43;;;;;;;34.05;26.45;;;;;;;18.32;42.83;100358.53;31667176;28;20289;-62
2020/12/08 20:55:44;;;;;;;34.75;26.45;;;;;;;18.41;42.89;100358.53;31642322;28;20020;-61
2020/12/08 21:10:44;;;;;;;46.15;35.20;;;;;;;15.75;35.27;100374.44;31647083;28;20031;-59
2020/12/08 21:25:45;;;;;;;36.70;28.77;;;;;;;16.58;41.55;100362.63;31595295;28;20043;-60
2020/12/08 21:40:46;;;;;;;36.13;27.80;;;;;;;17.20;40.77;100350.56;31602555;28;20466;-56
2020/12/08 21:55:47;;;;;;;34.38;26.75;;;;;;;17.39;41.28;100347.25;31619615;28;20032;-54
2020/12/08 22:10:48;;;;;;;34.10;26.63;;;;;;;17.46;41.29;100360.69;31601399;28;20101;-60
2020/12/08 22:25:50;;;;;;;36.40;28.05;;;;;;;17.46;41.94;100355.44;31592859;28;20048;-62
2020/12/08 22:40:51;;;;;;;36.72;28.67;;;;;;;17.40;41.48;100332.31;31600796;28;20397;-61
2020/12/08 22:55:52;;;;;;;34.85;27.75;;;;;;;17.36;42.16;100336.97;31676953;28;20038;-59
2020/12/08 23:10:53;;;;;;;36.40;26.92;;;;;;;17.31;42.31;100341.78;31603150;28;20051;-60
2020/12/08 23:25:54;;;;;;;35.88;27.35;;;;;;;17.07;41.95;100316.63;31636730;28;20020;-61
2020/12/08 23:40:55;;;;;;;33.60;26.13;;;;;;;16.96;41.76;100330.66;31494940;28;20032;-60
2020/12/08 23:55:56;;;;;;;36.03;25.17;;;;;;;16.88;42.31;100322.59;31501910;28;20020;-60
